sensor_id;sensor_type;location;lat;lon;timestamp;temperature;humidity
19945;DHT22;10134;50.952;6.930;2022-09-29T00:01:06;10.90;99.90
19945;DHT22;10134;50.952;6.930;2022-09-29T00:03:33;10.90;99.90
19945;DHT22;10134;50.952;6.930;2022-09-29T00:06:00;10.90;99.90
19945;DHT22;10134;50.952;6.930;2022-09-29T00:08:29;10.90;99.90
19945;DHT22;10134;50.952;6.930;2022-09-29T00:10:57;10.80;99.90
19945;DHT22;10134;50.952;6.930;2022-09-29T00:13:24;10.80;99.90
19945;DHT22;10134;50.952;6.930;2022-09-29T00:15:56;10.80;99.90
19945;DHT22;10134;50.952;6.930;2022-09-29T00:18:23;10.70;99.90
19945;DHT22;10134;50.952;6.930;2022-09-29T00:23:26;10.70;99.90
19945;DHT22;10134;50.952;6.930;2022-09-29T00:26:09;10.60;99.90
19945;DHT22;10134;50.952;6.930;2022-09-29T00:28:39;10.60;99.90
19945;DHT22;10134;50.952;6.930;2022-09-29T00:31:07;10.60;99.90
19945;DHT22;10134;50.952;6.930;2022-09-29T00:33:37;10.50;99.90
19945;DHT22;10134;50.952;6.930;2022-09-29T00:36:08;10.50;99.90
19945;DHT22;10134;50.952;6.930;2022-09-29T00:38:36;10.50;99.90
19945;DHT22;10134;50.952;6.930;2022-09-29T00:41:04;10.40;99.90
19945;DHT22;10134;50.952;6.930;2022-09-29T00:46:45;10.40;99.90
19945;DHT22;10134;50.952;6.930;2022-09-29T00:49:43;10.40;99.90
19945;DHT22;10134;50.952;6.930;2022-09-29T00:52:18;10.30;99.90
19945;DHT22;10134;50.952;6.930;2022-09-29T00:55:24;10.30;99.90
19945;DHT22;10134;50.952;6.930;2022-09-29T00:57:58;10.20;99.90
19945;DHT22;10134;50.952;6.930;2022-09-29T01:00:27;10.20;99.90
19945;DHT22;10134;50.952;6.930;2022-09-29T01:03:00;10.20;99.90
19945;DHT22;10134;50.952;6.930;2022-09-29T01:05:42;10.20;99.90
19945;DHT22;10134;50.952;6.930;2022-09-29T01:08:16;10.10;99.90
19945;DHT22;10134;50.952;6.930;2022-09-29T01:10:47;10.10;99.90
19945;DHT22;10134;50.952;6.930;2022-09-29T01:13:16;10.10;99.90
19945;DHT22;10134;50.952;6.930;2022-09-29T01:15:44;10.00;99.90
19945;DHT22;10134;50.952;6.930;2022-09-29T01:18:12;10.00;99.90
19945;DHT22;10134;50.952;6.930;2022-09-29T01:26:19;9.90;99.90
19945;DHT22;10134;50.952;6.930;2022-09-29T01:32:03;9.90;99.90
19945;DHT22;10134;50.952;6.930;2022-09-29T01:37:53;9.80;99.90
19945;DHT22;10134;50.952;6.930;2022-09-29T01:40:33;9.80;99.90
19945;DHT22;10134;50.952;6.930;2022-09-29T01:43:08;9.80;99.90
19945;DHT22;10134;50.952;6.930;2022-09-29T01:45:42;9.80;99.90
19945;DHT22;10134;50.952;6.930;2022-09-29T01:48:21;9.80;99.90
19945;DHT22;10134;50.952;6.930;2022-09-29T01:51:04;9.80;99.90
19945;DHT22;10134;50.952;6.930;2022-09-29T01:53:36;9.70;99.90
19945;DHT22;10134;50.952;6.930;2022-09-29T01:56:15;9.70;99.90
19945;DHT22;10134;50.952;6.930;2022-09-29T01:58:57;9.70;99.90
19945;DHT22;10134;50.952;6.930;2022-09-29T02:01:30;9.70;99.90
19945;DHT22;10134;50.952;6.930;2022-09-29T02:04:03;9.60;99.90
19945;DHT22;10134;50.952;6.930;2022-09-29T02:06:37;9.60;99.90
19945;DHT22;10134;50.952;6.930;2022-09-29T02:09:14;9.60;99.90
19945;DHT22;10134;50.952;6.930;2022-09-29T02:11:45;9.60;99.90
19945;DHT22;10134;50.952;6.930;2022-09-29T02:14:18;9.60;99.90
19945;DHT22;10134;50.952;6.930;2022-09-29T02:16:51;9.60;99.90
19945;DHT22;10134;50.952;6.930;2022-09-29T02:19:26;9.50;99.90
19945;DHT22;10134;50.952;6.930;2022-09-29T02:21:55;9.50;99.90
19945;DHT22;10134;50.952;6.930;2022-09-29T02:24:23;9.50;99.90
19945;DHT22;10134;50.952;6.930;2022-09-29T02:26:51;9.50;99.90
19945;DHT22;10134;50.952;6.930;2022-09-29T02:29:19;9.40;99.90
19945;DHT22;10134;50.952;6.930;2022-09-29T02:31:47;9.40;99.90
19945;DHT22;10134;50.952;6.930;2022-09-29T02:34:19;9.40;99.90
19945;DHT22;10134;50.952;6.930;2022-09-29T02:42:42;9.30;99.90
19945;DHT22;10134;50.952;6.930;2022-09-29T02:47:50;9.30;99.90
19945;DHT22;10134;50.952;6.930;2022-09-29T03:00:05;9.20;99.90
19945;DHT22;10134;50.952;6.930;2022-09-29T03:02:36;9.20;99.90
19945;DHT22;10134;50.952;6.930;2022-09-29T03:05:05;9.20;99.90
19945;DHT22;10134;50.952;6.930;2022-09-29T03:07:35;9.20;99.90
19945;DHT22;10134;50.952;6.930;2022-09-29T03:10:04;9.20;99.90
19945;DHT22;10134;50.952;6.930;2022-09-29T03:12:31;9.20;99.90
19945;DHT22;10134;50.952;6.930;2022-09-29T03:14:59;9.20;99.90
19945;DHT22;10134;50.952;6.930;2022-09-29T03:17:26;9.20;99.90
19945;DHT22;10134;50.952;6.930;2022-09-29T03:19:54;9.20;99.90
19945;DHT22;10134;50.952;6.930;2022-09-29T03:22:21;9.10;99.90
19945;DHT22;10134;50.952;6.930;2022-09-29T03:24:49;9.10;99.90
19945;DHT22;10134;50.952;6.930;2022-09-29T03:27:16;9.10;99.90
19945;DHT22;10134;50.952;6.930;2022-09-29T03:29:43;9.00;99.90
19945;DHT22;10134;50.952;6.930;2022-09-29T03:32:10;9.00;99.90
19945;DHT22;10134;50.952;6.930;2022-09-29T03:34:38;9.00;99.90
19945;DHT22;10134;50.952;6.930;2022-09-29T03:37:05;9.00;99.90
19945;DHT22;10134;50.952;6.930;2022-09-29T03:39:32;9.00;99.90
19945;DHT22;10134;50.952;6.930;2022-09-29T03:41:59;9.00;99.90
19945;DHT22;10134;50.952;6.930;2022-09-29T03:44:27;8.90;99.90
19945;DHT22;10134;50.952;6.930;2022-09-29T03:46:54;9.00;99.90
19945;DHT22;10134;50.952;6.930;2022-09-29T03:49:21;9.00;99.90
19945;DHT22;10134;50.952;6.930;2022-09-29T03:51:48;8.90;99.90
19945;DHT22;10134;50.952;6.930;2022-09-29T03:54:15;8.90;99.90
19945;DHT22;10134;50.952;6.930;2022-09-29T03:56:43;8.90;99.90
19945;DHT22;10134;50.952;6.930;2022-09-29T03:59:10;8.90;99.90
19945;DHT22;10134;50.952;6.930;2022-09-29T04:01:38;8.90;99.90
19945;DHT22;10134;50.952;6.930;2022-09-29T04:04:05;8.90;99.90
19945;DHT22;10134;50.952;6.930;2022-09-29T04:06:33;8.80;99.90
19945;DHT22;10134;50.952;6.930;2022-09-29T04:09:00;8.80;99.90
19945;DHT22;10134;50.952;6.930;2022-09-29T04:11:27;8.80;99.90
19945;DHT22;10134;50.952;6.930;2022-09-29T04:13:55;8.80;99.90
19945;DHT22;10134;50.952;6.930;2022-09-29T04:16:23;8.80;99.90
19945;DHT22;10134;50.952;6.930;2022-09-29T04:18:50;8.80;99.90
19945;DHT22;10134;50.952;6.930;2022-09-29T04:21:17;8.80;99.90
19945;DHT22;10134;50.952;6.930;2022-09-29T04:23:45;8.70;99.90
19945;DHT22;10134;50.952;6.930;2022-09-29T04:26:12;8.80;99.90
19945;DHT22;10134;50.952;6.930;2022-09-29T04:28:40;8.80;99.90
19945;DHT22;10134;50.952;6.930;2022-09-29T04:31:08;8.70;99.90
19945;DHT22;10134;50.952;6.930;2022-09-29T04:33:35;8.70;99.90
19945;DHT22;10134;50.952;6.930;2022-09-29T04:36:04;8.70;99.90
19945;DHT22;10134;50.952;6.930;2022-09-29T04:38:31;8.70;99.90
19945;DHT22;10134;50.952;6.930;2022-09-29T04:40:58;8.70;99.90
19945;DHT22;10134;50.952;6.930;2022-09-29T04:43:26;8.60;99.90
19945;DHT22;10134;50.952;6.930;2022-09-29T04:46:03;8.60;99.90
19945;DHT22;10134;50.952;6.930;2022-09-29T04:48:31;8.60;99.90
19945;DHT22;10134;50.952;6.930;2022-09-29T04:51:03;8.60;99.90
19945;DHT22;10134;50.952;6.930;2022-09-29T04:53:31;8.60;99.90
19945;DHT22;10134;50.952;6.930;2022-09-29T04:55:58;8.60;99.90
19945;DHT22;10134;50.952;6.930;2022-09-29T04:58:25;8.60;99.90
19945;DHT22;10134;50.952;6.930;2022-09-29T05:00:52;8.60;99.90
19945;DHT22;10134;50.952;6.930;2022-09-29T05:03:20;8.50;99.90
19945;DHT22;10134;50.952;6.930;2022-09-29T05:05:47;8.50;99.90
19945;DHT22;10134;50.952;6.930;2022-09-29T05:08:14;8.50;99.90
19945;DHT22;10134;50.952;6.930;2022-09-29T05:10:42;8.50;99.90
19945;DHT22;10134;50.952;6.930;2022-09-29T05:13:13;8.50;99.90
19945;DHT22;10134;50.952;6.930;2022-09-29T05:15:40;8.50;99.90
19945;DHT22;10134;50.952;6.930;2022-09-29T05:18:08;8.40;99.90
19945;DHT22;10134;50.952;6.930;2022-09-29T05:20:35;8.40;99.90
19945;DHT22;10134;50.952;6.930;2022-09-29T05:23:10;8.40;99.90
19945;DHT22;10134;50.952;6.930;2022-09-29T05:25:38;8.40;99.90
19945;DHT22;10134;50.952;6.930;2022-09-29T05:28:06;8.30;99.90
19945;DHT22;10134;50.952;6.930;2022-09-29T05:30:34;8.30;99.90
19945;DHT22;10134;50.952;6.930;2022-09-29T05:33:02;8.30;99.90
19945;DHT22;10134;50.952;6.930;2022-09-29T05:35:29;8.20;99.90
19945;DHT22;10134;50.952;6.930;2022-09-29T05:37:56;8.20;99.90
19945;DHT22;10134;50.952;6.930;2022-09-29T05:40:24;8.20;99.90
19945;DHT22;10134;50.952;6.930;2022-09-29T05:42:52;8.20;99.90
19945;DHT22;10134;50.952;6.930;2022-09-29T05:45:19;8.20;99.90
19945;DHT22;10134;50.952;6.930;2022-09-29T05:47:46;8.20;99.90
19945;DHT22;10134;50.952;6.930;2022-09-29T05:50:13;8.30;99.90
19945;DHT22;10134;50.952;6.930;2022-09-29T05:52:41;8.30;99.90
19945;DHT22;10134;50.952;6.930;2022-09-29T05:55:08;8.30;99.90
19945;DHT22;10134;50.952;6.930;2022-09-29T05:57:36;8.40;99.90
19945;DHT22;10134;50.952;6.930;2022-09-29T06:00:04;8.40;99.90
19945;DHT22;10134;50.952;6.930;2022-09-29T06:02:37;8.40;99.90
19945;DHT22;10134;50.952;6.930;2022-09-29T06:05:04;8.40;99.90
19945;DHT22;10134;50.952;6.930;2022-09-29T06:07:32;8.50;99.90
19945;DHT22;10134;50.952;6.930;2022-09-29T06:09:59;8.50;99.90
19945;DHT22;10134;50.952;6.930;2022-09-29T06:12:26;8.50;99.90
19945;DHT22;10134;50.952;6.930;2022-09-29T06:14:53;8.50;99.90
19945;DHT22;10134;50.952;6.930;2022-09-29T06:17:21;8.50;99.90
19945;DHT22;10134;50.952;6.930;2022-09-29T06:19:48;8.50;99.90
19945;DHT22;10134;50.952;6.930;2022-09-29T06:22:15;8.50;99.90
19945;DHT22;10134;50.952;6.930;2022-09-29T06:24:42;8.60;99.90
19945;DHT22;10134;50.952;6.930;2022-09-29T06:27:09;8.60;99.90
19945;DHT22;10134;50.952;6.930;2022-09-29T06:29:37;8.60;99.90
19945;DHT22;10134;50.952;6.930;2022-09-29T06:32:04;8.60;99.90
19945;DHT22;10134;50.952;6.930;2022-09-29T06:34:32;8.50;99.90
19945;DHT22;10134;50.952;6.930;2022-09-29T06:36:59;8.50;99.90
19945;DHT22;10134;50.952;6.930;2022-09-29T06:39:44;8.60;99.90
19945;DHT22;10134;50.952;6.930;2022-09-29T06:42:12;8.50;99.90
19945;DHT22;10134;50.952;6.930;2022-09-29T06:44:39;8.60;99.90
19945;DHT22;10134;50.952;6.930;2022-09-29T06:47:06;8.60;99.90
19945;DHT22;10134;50.952;6.930;2022-09-29T06:49:34;8.60;99.90
19945;DHT22;10134;50.952;6.930;2022-09-29T06:52:01;8.60;99.90
19945;DHT22;10134;50.952;6.930;2022-09-29T06:54:46;8.70;99.90
19945;DHT22;10134;50.952;6.930;2022-09-29T06:57:13;8.80;99.90
19945;DHT22;10134;50.952;6.930;2022-09-29T06:59:45;8.90;99.90
19945;DHT22;10134;50.952;6.930;2022-09-29T07:02:12;8.90;99.90
19945;DHT22;10134;50.952;6.930;2022-09-29T07:04:40;9.00;99.90
19945;DHT22;10134;50.952;6.930;2022-09-29T07:07:07;9.00;99.90
19945;DHT22;10134;50.952;6.930;2022-09-29T07:09:34;9.10;99.90
19945;DHT22;10134;50.952;6.930;2022-09-29T07:12:01;9.10;99.90
19945;DHT22;10134;50.952;6.930;2022-09-29T07:14:29;9.10;99.90
19945;DHT22;10134;50.952;6.930;2022-09-29T07:16:56;9.20;99.90
19945;DHT22;10134;50.952;6.930;2022-09-29T07:19:25;9.20;99.90
19945;DHT22;10134;50.952;6.930;2022-09-29T07:21:52;9.20;99.90
19945;DHT22;10134;50.952;6.930;2022-09-29T07:24:19;9.30;99.90
19945;DHT22;10134;50.952;6.930;2022-09-29T07:26:47;9.30;99.90
19945;DHT22;10134;50.952;6.930;2022-09-29T07:29:14;9.30;99.90
19945;DHT22;10134;50.952;6.930;2022-09-29T07:31:43;9.40;99.90
19945;DHT22;10134;50.952;6.930;2022-09-29T07:34:19;9.40;99.90
19945;DHT22;10134;50.952;6.930;2022-09-29T07:36:47;9.40;99.90
19945;DHT22;10134;50.952;6.930;2022-09-29T07:39:14;9.50;99.90
19945;DHT22;10134;50.952;6.930;2022-09-29T07:41:42;9.50;99.90
19945;DHT22;10134;50.952;6.930;2022-09-29T07:44:09;9.60;99.90
19945;DHT22;10134;50.952;6.930;2022-09-29T07:46:37;9.60;99.90
19945;DHT22;10134;50.952;6.930;2022-09-29T07:49:04;9.70;99.90
19945;DHT22;10134;50.952;6.930;2022-09-29T07:51:32;9.80;99.90
19945;DHT22;10134;50.952;6.930;2022-09-29T07:54:03;9.80;99.90
19945;DHT22;10134;50.952;6.930;2022-09-29T07:56:31;9.80;99.90
19945;DHT22;10134;50.952;6.930;2022-09-29T07:58:59;9.90;99.90
19945;DHT22;10134;50.952;6.930;2022-09-29T08:01:28;9.90;99.90
19945;DHT22;10134;50.952;6.930;2022-09-29T08:03:56;10.00;99.90
19945;DHT22;10134;50.952;6.930;2022-09-29T08:06:24;10.00;99.90
19945;DHT22;10134;50.952;6.930;2022-09-29T08:08:52;10.00;99.90
19945;DHT22;10134;50.952;6.930;2022-09-29T08:11:32;10.10;99.90
19945;DHT22;10134;50.952;6.930;2022-09-29T08:14:00;10.10;99.90
19945;DHT22;10134;50.952;6.930;2022-09-29T08:16:28;10.10;99.90
19945;DHT22;10134;50.952;6.930;2022-09-29T08:18:57;10.20;99.90
19945;DHT22;10134;50.952;6.930;2022-09-29T08:21:26;10.20;99.90
19945;DHT22;10134;50.952;6.930;2022-09-29T08:23:53;10.20;99.90
19945;DHT22;10134;50.952;6.930;2022-09-29T08:26:21;10.20;99.90
19945;DHT22;10134;50.952;6.930;2022-09-29T08:29:05;10.30;99.90
19945;DHT22;10134;50.952;6.930;2022-09-29T08:31:35;10.30;99.90
19945;DHT22;10134;50.952;6.930;2022-09-29T08:34:04;10.30;99.90
19945;DHT22;10134;50.952;6.930;2022-09-29T08:36:32;10.30;99.90
19945;DHT22;10134;50.952;6.930;2022-09-29T08:38:59;10.30;99.90
19945;DHT22;10134;50.952;6.930;2022-09-29T08:47:18;10.40;99.90
19945;DHT22;10134;50.952;6.930;2022-09-29T08:49:53;10.40;99.90
19945;DHT22;10134;50.952;6.930;2022-09-29T08:52:25;10.40;99.90
19945;DHT22;10134;50.952;6.930;2022-09-29T08:54:58;10.40;99.90
19945;DHT22;10134;50.952;6.930;2022-09-29T08:57:38;10.40;99.90
19945;DHT22;10134;50.952;6.930;2022-09-29T09:00:09;10.50;99.90
19945;DHT22;10134;50.952;6.930;2022-09-29T09:20:35;10.80;99.90
19945;DHT22;10134;50.952;6.930;2022-09-29T09:23:20;10.80;99.90
19945;DHT22;10134;50.952;6.930;2022-09-29T09:25:51;10.90;99.90
19945;DHT22;10134;50.952;6.930;2022-09-29T09:28:48;10.90;99.90
19945;DHT22;10134;50.952;6.930;2022-09-29T09:31:44;11.00;99.90
19945;DHT22;10134;50.952;6.930;2022-09-29T09:36:56;11.10;99.90
19945;DHT22;10134;50.952;6.930;2022-09-29T09:39:39;11.20;99.90
19945;DHT22;10134;50.952;6.930;2022-09-29T09:42:15;11.30;99.90
19945;DHT22;10134;50.952;6.930;2022-09-29T09:44:56;11.40;99.90
19945;DHT22;10134;50.952;6.930;2022-09-29T09:47:33;11.40;99.90
19945;DHT22;10134;50.952;6.930;2022-09-29T09:50:13;11.50;99.90
19945;DHT22;10134;50.952;6.930;2022-09-29T09:52:51;11.60;99.90
19945;DHT22;10134;50.952;6.930;2022-09-29T09:55:24;11.60;99.90
19945;DHT22;10134;50.952;6.930;2022-09-29T09:58:06;11.70;99.90
19945;DHT22;10134;50.952;6.930;2022-09-29T10:00:48;11.70;99.90
19945;DHT22;10134;50.952;6.930;2022-09-29T10:03:17;11.80;99.90
19945;DHT22;10134;50.952;6.930;2022-09-29T10:05:46;11.90;99.90
19945;DHT22;10134;50.952;6.930;2022-09-29T10:08:16;11.90;99.90
19945;DHT22;10134;50.952;6.930;2022-09-29T10:10:45;12.00;99.90
19945;DHT22;10134;50.952;6.930;2022-09-29T10:13:27;12.10;99.90
19945;DHT22;10134;50.952;6.930;2022-09-29T10:15:59;12.20;99.90
19945;DHT22;10134;50.952;6.930;2022-09-29T10:18:41;12.20;99.90
19945;DHT22;10134;50.952;6.930;2022-09-29T10:21:35;12.30;99.90
19945;DHT22;10134;50.952;6.930;2022-09-29T10:24:04;12.40;99.90
19945;DHT22;10134;50.952;6.930;2022-09-29T10:26:44;12.40;99.90
19945;DHT22;10134;50.952;6.930;2022-09-29T10:29:28;12.50;99.90
19945;DHT22;10134;50.952;6.930;2022-09-29T10:34:30;12.70;99.90
19945;DHT22;10134;50.952;6.930;2022-09-29T10:37:04;12.70;99.90
19945;DHT22;10134;50.952;6.930;2022-09-29T10:39:40;12.80;99.90
19945;DHT22;10134;50.952;6.930;2022-09-29T10:42:32;12.90;99.90
19945;DHT22;10134;50.952;6.930;2022-09-29T10:45:12;12.90;99.90
19945;DHT22;10134;50.952;6.930;2022-09-29T10:47:41;13.00;99.90
19945;DHT22;10134;50.952;6.930;2022-09-29T10:50:29;13.10;99.90
19945;DHT22;10134;50.952;6.930;2022-09-29T10:53:06;13.10;99.90
19945;DHT22;10134;50.952;6.930;2022-09-29T10:55:48;13.20;99.90
19945;DHT22;10134;50.952;6.930;2022-09-29T10:58:28;13.30;99.90
19945;DHT22;10134;50.952;6.930;2022-09-29T11:01:17;13.30;99.90
19945;DHT22;10134;50.952;6.930;2022-09-29T11:03:56;13.40;99.90
19945;DHT22;10134;50.952;6.930;2022-09-29T11:06:34;13.50;99.90
19945;DHT22;10134;50.952;6.930;2022-09-29T11:09:26;13.60;99.90
19945;DHT22;10134;50.952;6.930;2022-09-29T11:11:56;13.60;99.90
19945;DHT22;10134;50.952;6.930;2022-09-29T11:14:31;13.70;99.90
19945;DHT22;10134;50.952;6.930;2022-09-29T11:19:54;13.80;99.90
19945;DHT22;10134;50.952;6.930;2022-09-29T11:28:03;14.10;99.90
19945;DHT22;10134;50.952;6.930;2022-09-29T11:30:41;14.20;99.90
19945;DHT22;10134;50.952;6.930;2022-09-29T11:36:51;14.20;99.90
19945;DHT22;10134;50.952;6.930;2022-09-29T11:39:35;14.20;99.90
19945;DHT22;10134;50.952;6.930;2022-09-29T11:45:00;14.30;99.90
19945;DHT22;10134;50.952;6.930;2022-09-29T11:56:34;14.50;99.90
19945;DHT22;10134;50.952;6.930;2022-09-29T11:59:35;14.60;99.90
19945;DHT22;10134;50.952;6.930;2022-09-29T12:02:38;14.70;99.90
19945;DHT22;10134;50.952;6.930;2022-09-29T12:05:20;14.90;99.90
19945;DHT22;10134;50.952;6.930;2022-09-29T12:11:04;15.20;99.90
19945;DHT22;10134;50.952;6.930;2022-09-29T12:17:12;15.50;99.90
19945;DHT22;10134;50.952;6.930;2022-09-29T12:19:42;15.70;99.90
19945;DHT22;10134;50.952;6.930;2022-09-29T12:22:16;15.80;99.90
19945;DHT22;10134;50.952;6.930;2022-09-29T12:24:54;15.90;99.90
19945;DHT22;10134;50.952;6.930;2022-09-29T12:27:37;16.00;99.00
19945;DHT22;10134;50.952;6.930;2022-09-29T12:30:17;16.00;98.40
19945;DHT22;10134;50.952;6.930;2022-09-29T12:33:24;16.10;97.80
19945;DHT22;10134;50.952;6.930;2022-09-29T12:36:14;16.10;97.50
19945;DHT22;10134;50.952;6.930;2022-09-29T12:41:45;16.20;97.10
19945;DHT22;10134;50.952;6.930;2022-09-29T12:50:33;16.30;95.60
19945;DHT22;10134;50.952;6.930;2022-09-29T12:53:11;16.30;95.50
19945;DHT22;10134;50.952;6.930;2022-09-29T12:55:57;16.30;95.50
19945;DHT22;10134;50.952;6.930;2022-09-29T12:58:44;16.30;95.70
19945;DHT22;10134;50.952;6.930;2022-09-29T13:01:19;16.30;95.70
19945;DHT22;10134;50.952;6.930;2022-09-29T13:09:41;16.20;93.60
19945;DHT22;10134;50.952;6.930;2022-09-29T13:15:12;16.00;93.50
19945;DHT22;10134;50.952;6.930;2022-09-29T13:23:06;16.00;94.50
19945;DHT22;10134;50.952;6.930;2022-09-29T13:25:59;16.00;94.80
19945;DHT22;10134;50.952;6.930;2022-09-29T13:31:04;16.10;94.30
19945;DHT22;10134;50.952;6.930;2022-09-29T13:33:35;16.10;93.50
19945;DHT22;10134;50.952;6.930;2022-09-29T13:36:02;16.10;93.50
19945;DHT22;10134;50.952;6.930;2022-09-29T13:38:33;16.10;93.10
19945;DHT22;10134;50.952;6.930;2022-09-29T13:44:22;16.10;92.90
19945;DHT22;10134;50.952;6.930;2022-09-29T13:46:51;16.10;92.30
19945;DHT22;10134;50.952;6.930;2022-09-29T13:49:24;16.10;92.30
19945;DHT22;10134;50.952;6.930;2022-09-29T13:58:29;16.30;92.80
19945;DHT22;10134;50.952;6.930;2022-09-29T14:00:59;16.30;92.50
19945;DHT22;10134;50.952;6.930;2022-09-29T14:03:35;16.40;92.70
19945;DHT22;10134;50.952;6.930;2022-09-29T14:06:14;16.40;93.00
19945;DHT22;10134;50.952;6.930;2022-09-29T14:09:07;16.40;92.90
19945;DHT22;10134;50.952;6.930;2022-09-29T14:11:57;16.40;92.60
19945;DHT22;10134;50.952;6.930;2022-09-29T14:14:32;16.50;92.90
19945;DHT22;10134;50.952;6.930;2022-09-29T14:17:11;16.50;92.70
19945;DHT22;10134;50.952;6.930;2022-09-29T14:33:03;16.50;91.30
19945;DHT22;10134;50.952;6.930;2022-09-29T14:35:36;16.50;90.80
19945;DHT22;10134;50.952;6.930;2022-09-29T14:40:35;16.60;91.40
19945;DHT22;10134;50.952;6.930;2022-09-29T14:43:14;16.60;91.00
19945;DHT22;10134;50.952;6.930;2022-09-29T14:52:06;16.80;90.90
19945;DHT22;10134;50.952;6.930;2022-09-29T15:00:18;16.70;90.90
19945;DHT22;10134;50.952;6.930;2022-09-29T15:02:51;16.70;91.20
19945;DHT22;10134;50.952;6.930;2022-09-29T15:05:36;16.60;90.60
19945;DHT22;10134;50.952;6.930;2022-09-29T15:08:26;16.60;90.30
19945;DHT22;10134;50.952;6.930;2022-09-29T15:10:54;16.60;90.50
19945;DHT22;10134;50.952;6.930;2022-09-29T15:13:28;16.50;90.20
19945;DHT22;10134;50.952;6.930;2022-09-29T15:16:10;16.50;90.00
19945;DHT22;10134;50.952;6.930;2022-09-29T15:21:59;16.40;89.60
19945;DHT22;10134;50.952;6.930;2022-09-29T15:24:51;16.40;90.20
19945;DHT22;10134;50.952;6.930;2022-09-29T15:27:21;16.30;90.30
19945;DHT22;10134;50.952;6.930;2022-09-29T15:29:53;16.20;90.00
19945;DHT22;10134;50.952;6.930;2022-09-29T15:32:24;16.10;90.00
19945;DHT22;10134;50.952;6.930;2022-09-29T15:34:53;16.00;89.80
19945;DHT22;10134;50.952;6.930;2022-09-29T15:37:25;16.00;90.10
19945;DHT22;10134;50.952;6.930;2022-09-29T15:39:53;16.00;89.90
19945;DHT22;10134;50.952;6.930;2022-09-29T15:42:22;15.90;90.00
19945;DHT22;10134;50.952;6.930;2022-09-29T15:45:00;15.90;90.40
19945;DHT22;10134;50.952;6.930;2022-09-29T15:47:34;15.90;89.80
19945;DHT22;10134;50.952;6.930;2022-09-29T15:50:19;15.80;89.00
19945;DHT22;10134;50.952;6.930;2022-09-29T15:52:47;15.70;88.50
19945;DHT22;10134;50.952;6.930;2022-09-29T15:55:22;15.70;89.00
19945;DHT22;10134;50.952;6.930;2022-09-29T15:57:50;15.60;88.70
19945;DHT22;10134;50.952;6.930;2022-09-29T16:05:31;15.40;87.70
19945;DHT22;10134;50.952;6.930;2022-09-29T16:10:35;15.20;89.20
19945;DHT22;10134;50.952;6.930;2022-09-29T16:13:06;15.20;89.50
19945;DHT22;10134;50.952;6.930;2022-09-29T16:15:36;15.10;90.30
19945;DHT22;10134;50.952;6.930;2022-09-29T16:18:12;15.10;89.80
19945;DHT22;10134;50.952;6.930;2022-09-29T16:20:42;15.00;90.00
19945;DHT22;10134;50.952;6.930;2022-09-29T16:23:28;14.90;90.30
19945;DHT22;10134;50.952;6.930;2022-09-29T16:28:36;14.80;90.90
19945;DHT22;10134;50.952;6.930;2022-09-29T16:33:46;14.70;91.80
19945;DHT22;10134;50.952;6.930;2022-09-29T16:36:22;14.60;92.10
19945;DHT22;10134;50.952;6.930;2022-09-29T16:38:51;14.50;92.40
19945;DHT22;10134;50.952;6.930;2022-09-29T16:41:36;14.50;92.70
19945;DHT22;10134;50.952;6.930;2022-09-29T16:49:49;14.30;93.20
19945;DHT22;10134;50.952;6.930;2022-09-29T16:52:25;14.20;93.90
19945;DHT22;10134;50.952;6.930;2022-09-29T16:55:17;14.20;94.40
19945;DHT22;10134;50.952;6.930;2022-09-29T16:57:54;14.10;94.80
19945;DHT22;10134;50.952;6.930;2022-09-29T17:00:22;14.00;95.10
19945;DHT22;10134;50.952;6.930;2022-09-29T17:02:50;13.90;95.10
19945;DHT22;10134;50.952;6.930;2022-09-29T17:05:18;13.90;95.20
19945;DHT22;10134;50.952;6.930;2022-09-29T17:07:48;13.90;95.40
19945;DHT22;10134;50.952;6.930;2022-09-29T17:10:18;13.80;95.70
19945;DHT22;10134;50.952;6.930;2022-09-29T17:12:46;13.80;96.00
19945;DHT22;10134;50.952;6.930;2022-09-29T17:15:15;13.70;96.20
19945;DHT22;10134;50.952;6.930;2022-09-29T17:17:47;13.60;96.40
19945;DHT22;10134;50.952;6.930;2022-09-29T17:20:18;13.60;96.70
19945;DHT22;10134;50.952;6.930;2022-09-29T17:22:46;13.50;97.00
19945;DHT22;10134;50.952;6.930;2022-09-29T17:25:15;13.50;97.10
19945;DHT22;10134;50.952;6.930;2022-09-29T17:27:45;13.40;97.20
19945;DHT22;10134;50.952;6.930;2022-09-29T17:30:31;13.40;97.50
19945;DHT22;10134;50.952;6.930;2022-09-29T17:32:58;13.30;98.00
19945;DHT22;10134;50.952;6.930;2022-09-29T17:35:31;13.20;98.30
19945;DHT22;10134;50.952;6.930;2022-09-29T17:37:59;13.20;98.70
19945;DHT22;10134;50.952;6.930;2022-09-29T17:43:20;13.10;99.30
19945;DHT22;10134;50.952;6.930;2022-09-29T17:45:50;13.00;99.60
19945;DHT22;10134;50.952;6.930;2022-09-29T17:48:18;13.00;99.90
19945;DHT22;10134;50.952;6.930;2022-09-29T17:50:48;12.90;99.90
19945;DHT22;10134;50.952;6.930;2022-09-29T17:53:16;12.90;99.90
19945;DHT22;10134;50.952;6.930;2022-09-29T17:55:46;12.80;99.90
19945;DHT22;10134;50.952;6.930;2022-09-29T17:58:17;12.80;99.90
19945;DHT22;10134;50.952;6.930;2022-09-29T18:00:49;12.80;99.90
19945;DHT22;10134;50.952;6.930;2022-09-29T18:03:19;12.70;99.90
19945;DHT22;10134;50.952;6.930;2022-09-29T18:05:51;12.70;99.90
19945;DHT22;10134;50.952;6.930;2022-09-29T18:08:24;12.60;99.90
19945;DHT22;10134;50.952;6.930;2022-09-29T18:11:00;12.60;99.90
19945;DHT22;10134;50.952;6.930;2022-09-29T18:13:29;12.60;99.90
19945;DHT22;10134;50.952;6.930;2022-09-29T18:16:00;12.60;99.90
19945;DHT22;10134;50.952;6.930;2022-09-29T18:18:28;12.50;99.90
19945;DHT22;10134;50.952;6.930;2022-09-29T18:20:55;12.50;99.90
19945;DHT22;10134;50.952;6.930;2022-09-29T18:23:22;12.50;99.90
19945;DHT22;10134;50.952;6.930;2022-09-29T18:25:51;12.50;99.90
19945;DHT22;10134;50.952;6.930;2022-09-29T18:28:19;12.50;99.90
19945;DHT22;10134;50.952;6.930;2022-09-29T18:33:47;12.40;99.90
19945;DHT22;10134;50.952;6.930;2022-09-29T18:36:14;12.40;99.90
19945;DHT22;10134;50.952;6.930;2022-09-29T18:38:42;12.40;99.90
19945;DHT22;10134;50.952;6.930;2022-09-29T18:41:13;12.40;99.90
19945;DHT22;10134;50.952;6.930;2022-09-29T18:43:42;12.40;99.90
19945;DHT22;10134;50.952;6.930;2022-09-29T18:46:10;12.40;99.90
19945;DHT22;10134;50.952;6.930;2022-09-29T18:48:37;12.40;99.90
19945;DHT22;10134;50.952;6.930;2022-09-29T18:51:05;12.30;99.90
19945;DHT22;10134;50.952;6.930;2022-09-29T18:53:32;12.30;99.90
19945;DHT22;10134;50.952;6.930;2022-09-29T18:56:01;12.30;99.90
19945;DHT22;10134;50.952;6.930;2022-09-29T18:58:30;12.20;99.90
19945;DHT22;10134;50.952;6.930;2022-09-29T19:00:57;12.20;99.90
19945;DHT22;10134;50.952;6.930;2022-09-29T19:03:26;12.20;99.90
19945;DHT22;10134;50.952;6.930;2022-09-29T19:05:54;12.10;99.90
19945;DHT22;10134;50.952;6.930;2022-09-29T19:08:22;12.10;99.90
19945;DHT22;10134;50.952;6.930;2022-09-29T19:10:52;12.10;99.90
19945;DHT22;10134;50.952;6.930;2022-09-29T19:13:21;12.00;99.90
19945;DHT22;10134;50.952;6.930;2022-09-29T19:15:49;12.00;99.90